Wolsey, South Dakota
Current Conditions -  °F | °C
As of 11:55 PM on Sunday 25 Jan 2015 (Local Time) from KHON Reporting Station
Clear Clear  
Wind Chill: 24°   Ceiling: Unl
Heat Index: 33°   Visibility: 10mi
Dew Point: 30°   Wind: 12mph
Humidity: 89%   Direction: 190°S
Pressure: 29.88"   Gusts: NA
Location:  44.41°N, 98.47°W
Report Text: KHON 260555Z AUTO 19010KT 10SM CLR 01/M01 A2988 RMK AO2 SLP131 T00061011 10011 21006 400111011 58026
Loading
Personal Weather Stations






























Interactive Weather Map New forecast layout! Learn more

10-Day Weather Forecast

Advertisements
Track Severe Weather on mobile